createdAt,value
2022-08-04T00:01:33.467Z,1.10
2022-08-04T00:04:07.359Z,1.22
2022-08-04T00:06:43.703Z,1.30
2022-08-04T00:09:17.651Z,1.32
2022-08-04T00:11:50.741Z,1.40
2022-08-04T00:14:23.260Z,1.35
2022-08-04T00:16:55.604Z,1.62
2022-08-04T00:19:29.398Z,1.55
2022-08-04T00:22:03.507Z,1.40
2022-08-04T00:24:35.418Z,1.22
2022-08-04T00:27:07.980Z,1.30
2022-08-04T00:29:40.992Z,1.47
2022-08-04T00:32:12.498Z,1.32
2022-08-04T00:34:44.511Z,1.52
2022-08-04T00:37:16.075Z,1.15
2022-08-04T00:39:47.723Z,1.40
2022-08-04T00:42:31.114Z,1.40
2022-08-04T00:45:20.394Z,1.70
2022-08-04T00:48:00.086Z,1.67
2022-08-04T00:50:35.588Z,1.60
2022-08-04T00:53:12.625Z,1.70
2022-08-04T00:56:09.041Z,1.40
2022-08-04T00:59:03.601Z,1.62
2022-08-04T01:01:48.871Z,1.37
2022-08-04T01:04:24.063Z,1.80
2022-08-04T01:07:07.153Z,1.60
2022-08-04T01:09:44.842Z,1.73
2022-08-04T01:12:30.314Z,1.70
2022-08-04T01:15:08.624Z,1.50
2022-08-04T01:17:50.756Z,1.70
2022-08-04T01:20:25.960Z,1.35
2022-08-04T01:23:28.702Z,1.65
2022-08-04T01:26:42.412Z,2.08
2022-08-04T01:29:12.971Z,1.77
2022-08-04T01:32:10.979Z,1.50
2022-08-04T01:34:44.325Z,1.57
2022-08-04T01:37:19.843Z,1.70
2022-08-04T01:39:58.376Z,2.10
2022-08-04T01:42:31.292Z,1.60
2022-08-04T01:45:06.555Z,1.70
2022-08-04T01:47:41.010Z,1.60
2022-08-04T01:50:13.589Z,1.70
2022-08-04T01:52:50.693Z,2.10
2022-08-04T01:55:19.499Z,1.70
2022-08-04T01:57:52.633Z,1.80
2022-08-04T02:00:27.039Z,1.80
2022-08-04T02:02:58.941Z,1.87
2022-08-04T02:06:02.475Z,1.70
2022-08-04T02:08:11.425Z,1.63
2022-08-04T02:10:59.842Z,1.83
2022-08-04T02:13:34.683Z,1.73
2022-08-04T02:16:08.217Z,1.90
2022-08-04T02:18:43.610Z,2.00
2022-08-04T02:21:17.153Z,1.73
2022-08-04T02:23:50.844Z,1.73
2022-08-04T02:26:23.702Z,1.90
2022-08-04T02:28:58.377Z,1.60
2022-08-04T02:31:32.954Z,2.00
2022-08-04T02:34:09.774Z,1.80
2022-08-04T02:36:42.934Z,1.93
2022-08-04T02:39:14.760Z,2.37
2022-08-04T02:41:48.103Z,2.20
2022-08-04T02:44:22.185Z,1.70
2022-08-04T02:46:55.579Z,1.80
2022-08-04T02:49:27.770Z,1.83
2022-08-04T02:52:00.816Z,2.07
2022-08-04T02:54:35.101Z,2.13
2022-08-04T02:57:08.585Z,2.13
2022-08-04T02:59:45.790Z,2.00
2022-08-04T03:02:19.189Z,2.23
2022-08-04T03:04:53.720Z,2.00
2022-08-04T03:07:46.146Z,2.07
2022-08-04T03:10:48.880Z,2.00
2022-08-04T03:13:42.273Z,2.10
2022-08-04T03:16:39.299Z,2.00
2022-08-04T03:19:28.132Z,2.23
2022-08-04T03:23:12.381Z,2.00
2022-08-04T03:25:54.363Z,2.50
2022-08-04T03:28:47.139Z,2.43
2022-08-04T03:31:50.891Z,2.33
2022-08-04T03:34:40.956Z,2.70
2022-08-04T03:41:04.100Z,2.30
2022-08-04T03:44:08.704Z,2.23
2022-08-04T03:46:57.807Z,2.20
2022-08-04T03:53:11.413Z,2.17
2022-08-04T03:55:50.873Z,2.20
2022-08-04T03:58:51.665Z,2.20
2022-08-04T04:02:02.497Z,2.07
2022-08-04T04:04:23.444Z,2.27
2022-08-04T04:10:29.166Z,2.20
2022-08-04T04:16:21.408Z,2.50
2022-08-04T04:19:16.050Z,2.27
2022-08-04T04:21:59.712Z,2.60
2022-08-04T04:24:49.296Z,2.70
2022-08-04T04:27:25.480Z,2.53
2022-08-04T04:30:11.537Z,2.07
2022-08-04T04:33:07.999Z,2.20
2022-08-04T04:35:45.298Z,2.33
2022-08-04T04:41:35.611Z,2.10
2022-08-04T04:44:47.525Z,2.40
2022-08-04T04:47:43.016Z,2.63
2022-08-04T04:49:58.181Z,2.63
2022-08-04T04:52:33.818Z,2.40
2022-08-04T04:55:07.350Z,2.40
2022-08-04T04:57:53.516Z,2.37
2022-08-04T05:00:15.210Z,2.43
2022-08-04T05:03:32.089Z,2.20
2022-08-04T05:06:17.465Z,2.70
2022-08-04T05:09:19.796Z,2.20
2022-08-04T05:14:30.882Z,2.37
2022-08-04T05:15:16.367Z,2.87
2022-08-04T05:17:50.007Z,2.60
2022-08-04T05:20:27.285Z,2.60
2022-08-04T05:23:00.455Z,2.47
2022-08-04T05:25:34.847Z,2.43
2022-08-04T05:28:09.062Z,2.53
2022-08-04T05:30:45.027Z,2.40
2022-08-04T05:33:18.132Z,2.60
2022-08-04T05:36:18.553Z,3.00
2022-08-04T05:38:28.736Z,2.70
2022-08-04T05:41:00.514Z,2.53
2022-08-04T05:43:32.567Z,2.80
2022-08-04T05:46:03.945Z,2.93
2022-08-04T05:48:37.070Z,2.53
2022-08-04T05:51:09.676Z,2.37
2022-08-04T05:53:44.171Z,2.67
2022-08-04T05:56:15.913Z,2.40
2022-08-04T05:58:48.269Z,2.60
2022-08-04T06:01:20.439Z,2.70
2022-08-04T06:03:51.528Z,2.60
2022-08-04T06:06:22.696Z,2.30
2022-08-04T06:08:56.094Z,2.60
2022-08-04T06:11:29.278Z,2.50
2022-08-04T06:14:02.524Z,3.00
2022-08-04T06:16:36.118Z,2.70
2022-08-04T06:19:59.896Z,2.50
2022-08-04T06:21:45.066Z,2.40
2022-08-04T06:24:18.911Z,2.47
2022-08-04T06:26:51.441Z,2.80
2022-08-04T06:29:51.642Z,2.70
2022-08-04T06:32:34.363Z,3.50
2022-08-04T06:35:02.505Z,3.53
2022-08-04T06:37:43.090Z,3.23
2022-08-04T06:40:31.656Z,3.02
2022-08-04T06:42:44.342Z,3.87
2022-08-04T06:45:16.384Z,2.95
2022-08-04T06:47:48.978Z,3.00
2022-08-04T06:51:25.334Z,3.25
2022-08-04T06:52:53.538Z,3.60
2022-08-04T06:55:25.482Z,2.75
2022-08-04T06:58:02.832Z,3.52
2022-08-04T07:00:32.338Z,3.20
2022-08-04T07:03:04.409Z,3.17
2022-08-04T07:05:36.146Z,4.70
2022-08-04T07:08:07.294Z,3.02
2022-08-04T07:10:38.765Z,2.95
2022-08-04T07:13:10.445Z,3.17
2022-08-04T07:15:43.481Z,3.35
2022-08-04T07:18:14.365Z,2.45
2022-08-04T07:20:46.600Z,2.15
2022-08-04T07:23:19.957Z,2.58
2022-08-04T07:26:00.352Z,2.12
2022-08-04T07:28:28.618Z,2.72
2022-08-04T07:31:00.339Z,2.62
2022-08-04T07:33:31.638Z,3.30
2022-08-04T07:36:05.353Z,2.87
2022-08-04T07:38:37.812Z,2.22
2022-08-04T07:43:40.857Z,2.87
2022-08-04T07:46:13.088Z,2.42
2022-08-04T07:48:43.868Z,2.65
2022-08-04T07:51:14.792Z,2.40
2022-08-04T07:53:54.186Z,2.30
2022-08-04T07:56:19.111Z,3.05
2022-08-04T07:58:50.573Z,2.70
2022-08-04T08:01:22.949Z,2.60
2022-08-04T08:03:55.073Z,2.30
2022-08-04T08:06:32.805Z,2.50
2022-08-04T08:09:12.163Z,2.85
2022-08-04T08:12:35.879Z,2.45
2022-08-04T08:14:08.605Z,2.50
2022-08-04T08:16:39.803Z,2.27
2022-08-04T08:19:11.352Z,2.27
2022-08-04T08:21:59.174Z,2.40
2022-08-04T08:24:15.434Z,2.60
2022-08-04T08:26:47.107Z,2.42
2022-08-04T08:29:17.871Z,3.08
2022-08-04T08:31:56.439Z,2.30
2022-08-04T08:34:28.116Z,2.10
2022-08-04T08:36:57.376Z,2.70
2022-08-04T08:39:32.305Z,2.50
2022-08-04T08:42:33.780Z,1.90
2022-08-04T08:45:34.877Z,2.40
2022-08-04T08:48:25.336Z,2.22
2022-08-04T08:51:12.351Z,3.00
2022-08-04T08:54:20.633Z,2.10
2022-08-04T08:56:56.162Z,2.95
2022-08-04T08:59:43.211Z,1.90
2022-08-04T09:02:41.610Z,2.17
2022-08-04T09:05:37.862Z,3.62
2022-08-04T09:08:15.879Z,2.65
2022-08-04T09:10:51.208Z,2.75
2022-08-04T09:13:27.362Z,3.22
2022-08-04T09:16:01.135Z,2.30
2022-08-04T09:18:35.528Z,2.22
2022-08-04T09:21:10.132Z,2.20
2022-08-04T09:23:45.933Z,2.50
2022-08-04T09:26:19.846Z,2.00
2022-08-04T09:28:55.091Z,2.20
2022-08-04T09:31:29.062Z,2.80
2022-08-04T09:34:07.659Z,2.10
2022-08-04T09:36:41.261Z,2.20
2022-08-04T09:39:19.120Z,2.33
2022-08-04T09:42:11.349Z,2.50
2022-08-04T09:44:53.953Z,1.95
2022-08-04T09:47:23.213Z,2.15
2022-08-04T09:49:57.078Z,2.12
2022-08-04T09:52:34.005Z,2.55
2022-08-04T09:55:09.400Z,1.80
2022-08-04T09:57:53.878Z,1.65
2022-08-04T10:00:41.166Z,2.05
2022-08-04T10:03:02.830Z,2.17
2022-08-04T10:05:41.843Z,1.72
2022-08-04T10:08:33.441Z,1.70
2022-08-04T10:11:08.029Z,1.70
2022-08-04T10:13:51.229Z,1.60
2022-08-04T10:16:39.233Z,1.75
2022-08-04T10:19:17.977Z,1.70
2022-08-04T10:21:59.654Z,1.80
2022-08-04T10:24:34.712Z,1.60
2022-08-04T10:27:08.920Z,1.82
2022-08-04T10:29:44.828Z,1.80
2022-08-04T10:32:19.507Z,1.85
2022-08-04T10:34:59.680Z,1.90
2022-08-04T10:38:00.353Z,1.72
2022-08-04T10:40:28.020Z,1.80
2022-08-04T10:43:03.938Z,1.75
2022-08-04T10:45:40.069Z,1.80
2022-08-04T10:48:14.821Z,1.85
2022-08-04T10:50:49.036Z,1.60
2022-08-04T10:53:24.146Z,1.67
2022-08-04T10:56:06.298Z,1.57
2022-08-04T10:58:48.058Z,1.40
2022-08-04T11:02:01.589Z,1.37
2022-08-04T11:03:55.681Z,1.50
2022-08-04T11:06:27.290Z,1.60
2022-08-04T11:09:00.378Z,1.57
2022-08-04T11:12:00.458Z,1.65
2022-08-04T11:14:10.166Z,1.47
2022-08-04T11:16:45.962Z,1.42
2022-08-04T11:19:42.639Z,1.40
2022-08-04T11:22:00.822Z,1.60
2022-08-04T11:24:38.445Z,1.60
2022-08-04T11:27:12.863Z,1.40
2022-08-04T11:29:49.668Z,1.37
2022-08-04T11:32:24.154Z,1.52
2022-08-04T11:34:57.734Z,1.45
2022-08-04T11:37:31.910Z,1.40
2022-08-04T11:40:06.372Z,1.35
2022-08-04T11:42:39.889Z,1.32
2022-08-04T11:45:15.055Z,1.50
2022-08-04T11:47:50.303Z,1.10
2022-08-04T11:50:24.816Z,1.47
2022-08-04T11:52:56.993Z,1.50
2022-08-04T11:55:30.178Z,1.30
2022-08-04T11:58:01.165Z,1.20
2022-08-04T12:00:33.664Z,1.40
2022-08-04T12:03:27.781Z,1.30
2022-08-04T12:06:06.344Z,1.20
2022-08-04T12:08:45.704Z,1.60
2022-08-04T12:11:20.381Z,1.25
2022-08-04T12:14:00.594Z,1.52
2022-08-04T12:16:33.390Z,1.25
2022-08-04T12:19:07.504Z,1.30
2022-08-04T12:21:43.575Z,1.30
2022-08-04T12:24:19.861Z,1.30
2022-08-04T12:26:54.744Z,1.30
2022-08-04T12:29:28.006Z,1.20
2022-08-04T12:32:02.124Z,1.20
2022-08-04T12:34:35.718Z,1.30
2022-08-04T12:37:09.311Z,1.40
2022-08-04T12:40:28.906Z,1.30
2022-08-04T12:42:21.323Z,1.27
2022-08-04T12:44:52.472Z,1.35
2022-08-04T12:47:36.496Z,1.55
2022-08-04T12:50:04.421Z,1.62
2022-08-04T12:53:01.141Z,1.25
2022-08-04T12:55:12.206Z,1.42
2022-08-04T12:57:45.134Z,1.57
2022-08-04T13:00:29.807Z,1.27
2022-08-04T13:03:02.176Z,1.30
2022-08-04T13:05:34.589Z,1.30
2022-08-04T13:08:08.608Z,1.47
2022-08-04T13:10:42.496Z,1.32
2022-08-04T13:13:19.193Z,1.27
2022-08-04T13:16:02.157Z,1.07
2022-08-04T13:18:36.938Z,1.30
2022-08-04T13:21:50.449Z,1.40
2022-08-04T13:24:20.486Z,1.40
2022-08-04T13:26:42.633Z,1.20
2022-08-04T13:29:16.549Z,1.50
2022-08-04T13:32:06.758Z,1.20
2022-08-04T13:34:40.254Z,1.35
2022-08-04T13:37:12.864Z,1.17
2022-08-04T13:39:55.562Z,1.30
2022-08-04T13:42:21.945Z,1.35
2022-08-04T13:44:56.192Z,1.45
2022-08-04T13:47:30.655Z,1.50
2022-08-04T13:50:20.969Z,1.30
2022-08-04T13:52:54.277Z,1.27
2022-08-04T13:55:28.403Z,1.62
2022-08-04T13:58:10.989Z,1.35
2022-08-04T14:00:46.616Z,1.50
2022-08-04T14:03:25.124Z,1.55
2022-08-04T14:06:15.071Z,2.08
2022-08-04T14:08:57.162Z,1.65
2022-08-04T14:12:09.268Z,1.87
2022-08-04T14:14:24.898Z,1.52
2022-08-04T14:17:00.979Z,1.20
2022-08-04T14:19:36.410Z,1.20
2022-08-04T14:22:06.550Z,1.55
2022-08-04T14:24:37.253Z,1.37
2022-08-04T14:27:08.056Z,1.37
2022-08-04T14:29:42.038Z,1.40
2022-08-04T14:32:14.831Z,1.22
2022-08-04T14:34:47.016Z,1.17
2022-08-04T14:37:20.532Z,1.20
2022-08-04T14:40:19.144Z,1.55
2022-08-04T14:42:42.142Z,1.40
2022-08-04T14:45:14.020Z,1.35
2022-08-04T14:47:52.456Z,1.40
2022-08-04T14:50:20.578Z,1.40
2022-08-04T14:52:51.377Z,1.50
2022-08-04T14:55:24.619Z,1.40
2022-08-04T14:58:35.691Z,1.35
2022-08-04T15:00:29.932Z,1.30
2022-08-04T15:03:03.341Z,1.42
2022-08-04T15:06:03.098Z,1.17
2022-08-04T15:08:07.571Z,1.60
2022-08-04T15:10:38.125Z,1.40
2022-08-04T15:13:11.400Z,1.20
2022-08-04T15:15:43.561Z,1.27
2022-08-04T15:18:15.905Z,1.57
2022-08-04T15:20:48.520Z,1.50
2022-08-04T15:23:19.517Z,1.20
2022-08-04T15:25:53.054Z,1.40
2022-08-04T15:28:26.391Z,1.47
2022-08-04T15:30:57.447Z,1.80
2022-08-04T15:33:33.859Z,1.55
2022-08-04T15:36:17.357Z,1.87
2022-08-04T15:38:53.469Z,1.22
2022-08-04T15:41:30.119Z,1.42
2022-08-04T15:44:36.594Z,1.52
2022-08-04T15:47:16.318Z,1.35
2022-08-04T15:49:49.119Z,1.40
2022-08-04T15:52:19.678Z,1.60
2022-08-04T15:54:52.823Z,1.40
2022-08-04T15:57:42.868Z,1.62
2022-08-04T16:00:15.443Z,1.30
2022-08-04T16:02:46.359Z,1.75
2022-08-04T16:05:39.410Z,1.30
2022-08-04T16:08:18.531Z,1.60
2022-08-04T16:10:51.104Z,1.50
2022-08-04T16:13:24.044Z,1.62
2022-08-04T16:15:56.348Z,1.65
2022-08-04T16:21:27.430Z,1.77
2022-08-04T16:27:03.581Z,1.80
2022-08-04T16:29:39.779Z,1.70
2022-08-04T16:32:16.217Z,1.60
2022-08-04T16:34:55.458Z,1.55
2022-08-04T16:37:23.110Z,1.60
2022-08-04T16:40:13.856Z,1.20
2022-08-04T16:42:46.463Z,1.50
2022-08-04T16:45:18.675Z,1.55
2022-08-04T16:48:08.135Z,1.57
2022-08-04T16:50:49.597Z,1.40
2022-08-04T16:53:58.713Z,1.60
2022-08-04T16:55:55.936Z,1.32
2022-08-04T16:58:34.539Z,1.70
2022-08-04T17:01:21.737Z,1.65
2022-08-04T17:03:51.003Z,1.67
2022-08-04T17:06:20.438Z,1.60
2022-08-04T17:08:52.059Z,1.62
2022-08-04T17:11:25.592Z,1.80
2022-08-04T17:14:02.563Z,1.70
2022-08-04T17:16:30.791Z,1.57
2022-08-04T17:19:02.171Z,1.40
2022-08-04T17:21:34.794Z,1.85
2022-08-04T17:24:14.438Z,1.90
2022-08-04T17:26:41.372Z,1.52
2022-08-04T17:29:12.472Z,1.50
2022-08-04T17:31:44.799Z,1.60
2022-08-04T17:34:20.377Z,1.70
2022-08-04T17:36:51.407Z,1.95
2022-08-04T17:39:25.488Z,2.10
2022-08-04T17:41:59.158Z,2.10
2022-08-04T17:44:38.805Z,1.70
2022-08-04T17:47:19.287Z,1.60
2022-08-04T17:49:52.627Z,1.50
2022-08-04T17:52:37.410Z,1.50
2022-08-04T17:55:03.213Z,1.50
2022-08-04T17:57:33.915Z,1.70
2022-08-04T18:00:05.465Z,1.47
2022-08-04T18:02:37.788Z,1.47
2022-08-04T18:05:12.135Z,1.72
2022-08-04T18:08:34.517Z,1.60
2022-08-04T18:10:30.665Z,1.70
2022-08-04T18:12:49.064Z,1.92
2022-08-04T18:15:26.329Z,1.67
2022-08-04T18:18:21.443Z,1.60
2022-08-04T18:20:30.991Z,1.65
2022-08-04T18:23:02.489Z,1.70
2022-08-04T18:25:50.457Z,1.57
2022-08-04T18:28:13.808Z,1.70
2022-08-04T18:30:54.829Z,1.82
2022-08-04T18:33:39.894Z,1.87
2022-08-04T18:36:35.478Z,1.67
2022-08-04T18:38:23.609Z,1.60
2022-08-04T18:40:53.269Z,2.00
2022-08-04T18:43:27.982Z,1.70
2022-08-04T18:45:55.943Z,1.80
2022-08-04T18:48:36.226Z,2.00
2022-08-04T18:51:22.586Z,1.72
2022-08-04T18:53:35.667Z,1.70
2022-08-04T18:56:06.347Z,1.90
2022-08-04T18:58:37.879Z,2.05
2022-08-04T19:01:13.602Z,2.05
2022-08-04T19:03:44.076Z,2.02
2022-08-04T19:06:15.910Z,1.95
2022-08-04T19:08:46.677Z,1.92
2022-08-04T19:11:37.778Z,1.70
2022-08-04T19:13:57.844Z,1.95
2022-08-04T19:16:21.989Z,1.95
2022-08-04T19:18:52.598Z,2.42
2022-08-04T19:24:28.468Z,1.90
2022-08-04T19:26:28.515Z,2.30
2022-08-04T19:28:59.614Z,2.30
2022-08-04T19:31:40.215Z,2.20
2022-08-04T19:34:05.201Z,1.85
2022-08-04T19:36:36.457Z,2.33
2022-08-04T19:39:11.643Z,2.00
2022-08-04T19:42:06.307Z,2.50
2022-08-04T19:44:15.955Z,2.58
2022-08-04T19:46:49.391Z,2.30
2022-08-04T19:50:03.144Z,2.62
2022-08-04T19:51:52.601Z,2.30
2022-08-04T19:54:27.531Z,2.62
2022-08-04T19:56:57.156Z,2.25
2022-08-04T19:59:27.886Z,2.50
2022-08-04T20:02:00.151Z,2.70
2022-08-04T20:04:32.053Z,2.17
2022-08-04T20:07:02.751Z,2.60
2022-08-04T20:09:36.361Z,2.42
2022-08-04T20:12:07.033Z,2.37
2022-08-04T20:14:39.301Z,2.80
2022-08-04T20:17:11.009Z,2.30
2022-08-04T20:19:41.987Z,2.30
2022-08-04T20:22:52.702Z,2.30
2022-08-04T20:25:00.561Z,2.55
2022-08-04T20:27:20.772Z,2.70
2022-08-04T20:29:55.508Z,2.33
2022-08-04T20:32:27.905Z,2.58
2022-08-04T20:34:59.510Z,2.20
2022-08-04T20:38:00.530Z,2.10
2022-08-04T20:40:03.627Z,2.40
2022-08-04T20:42:36.193Z,2.15
2022-08-04T20:45:08.757Z,2.10
2022-08-04T20:47:41.087Z,2.20
2022-08-04T20:50:13.550Z,2.20
2022-08-04T20:52:44.617Z,2.30
2022-08-04T20:55:15.304Z,2.10
2022-08-04T20:57:49.459Z,2.67
2022-08-04T21:02:51.550Z,2.10
2022-08-04T21:05:22.568Z,2.22
2022-08-04T21:07:55.170Z,2.42
2022-08-04T21:10:26.716Z,2.00
2022-08-04T21:12:57.561Z,1.95
2022-08-04T21:15:58.190Z,1.92
2022-08-04T21:18:04.673Z,1.98
2022-08-04T21:20:33.551Z,1.82
2022-08-04T21:23:07.391Z,1.80
2022-08-04T21:25:43.459Z,1.72
2022-08-04T21:28:09.892Z,1.70
2022-08-04T21:33:12.669Z,1.50
2022-08-04T21:35:44.913Z,1.62
2022-08-04T21:38:17.600Z,1.70
2022-08-04T21:40:54.113Z,1.40
2022-08-04T21:43:28.451Z,1.50
2022-08-04T21:46:04.066Z,1.40
2022-08-04T21:48:31.661Z,1.30
2022-08-04T21:51:59.017Z,1.10
2022-08-04T21:54:09.401Z,1.50
2022-08-04T21:56:40.480Z,1.15
2022-08-04T21:59:14.481Z,1.42
2022-08-04T22:01:50.661Z,1.07
2022-08-04T22:04:17.753Z,0.90
2022-08-04T22:06:52.436Z,1.27
2022-08-04T22:09:21.546Z,1.32
2022-08-04T22:11:52.884Z,1.20
2022-08-04T22:14:28.996Z,1.20
2022-08-04T22:16:56.658Z,1.17
2022-08-04T22:19:54.959Z,0.93
2022-08-04T22:22:00.588Z,1.27
2022-08-04T22:24:32.455Z,1.12
2022-08-04T22:27:03.175Z,1.00
2022-08-04T22:29:39.130Z,1.10
2022-08-04T22:32:11.341Z,1.20
2022-08-04T22:34:45.682Z,1.35
2022-08-04T22:37:13.385Z,1.40
2022-08-04T22:39:56.135Z,1.15
2022-08-04T22:42:16.946Z,1.20
2022-08-04T22:44:47.484Z,1.22
2022-08-04T22:47:20.401Z,1.20
2022-08-04T22:50:01.596Z,1.30
2022-08-04T22:52:26.143Z,1.40
2022-08-04T22:54:55.057Z,1.10
2022-08-04T22:57:43.592Z,1.60
2022-08-04T22:59:59.713Z,1.30
2022-08-04T23:02:32.249Z,1.10
2022-08-04T23:05:03.585Z,1.20
2022-08-04T23:07:47.629Z,1.45
2022-08-04T23:10:08.438Z,1.55
2022-08-04T23:12:39.132Z,1.42
2022-08-04T23:15:13.222Z,1.32
2022-08-04T23:17:47.932Z,1.17
2022-08-04T23:20:23.124Z,1.50
2022-08-04T23:22:49.190Z,1.47
2022-08-04T23:25:20.950Z,1.35
2022-08-04T23:27:53.271Z,1.50
2022-08-04T23:30:29.795Z,1.10
2022-08-04T23:32:59.206Z,1.82
2022-08-04T23:35:30.093Z,1.50
2022-08-04T23:38:31.477Z,1.35
2022-08-04T23:40:50.111Z,1.80
2022-08-04T23:43:12.491Z,1.40
2022-08-04T23:46:07.547Z,1.70
2022-08-04T23:48:32.089Z,1.70
2022-08-04T23:51:13.728Z,1.52
2022-08-04T23:53:41.690Z,1.70
2022-08-04T23:56:19.468Z,1.55
2022-08-04T23:58:46.929Z,1.47
